createdAt,value
2022-10-17T00:00:51.412Z,96037.09
2022-10-17T00:03:18.309Z,96043.97
2022-10-17T00:05:46.758Z,96035.97
2022-10-17T00:08:15.037Z,96040.16
2022-10-17T00:10:41.887Z,96033.75
2022-10-17T00:13:10.927Z,96028.13
2022-10-17T00:15:37.689Z,96037.78
2022-10-17T00:18:04.323Z,96041.16
2022-10-17T00:20:31.288Z,96045.31
2022-10-17T00:22:57.756Z,96043.22
2022-10-17T00:25:24.243Z,96046.28
2022-10-17T00:27:50.748Z,96048.53
2022-10-17T00:30:17.296Z,96045.34
2022-10-17T00:32:43.879Z,96042.16
2022-10-17T00:35:10.432Z,96051.78
2022-10-17T00:37:37.519Z,96048.25
2022-10-17T00:40:05.819Z,96058.66
2022-10-17T00:42:32.283Z,96051.13
2022-10-17T00:45:00.522Z,96058.84
2022-10-17T00:47:28.549Z,96054.50
2022-10-17T00:49:55.348Z,96060.28
2022-10-17T00:52:27.159Z,96057.06
2022-10-17T00:55:00.276Z,96049.22
2022-10-17T00:57:29.967Z,96057.38
2022-10-17T00:59:58.137Z,96057.69
2022-10-17T01:02:24.837Z,96056.41
2022-10-17T01:04:53.770Z,96055.91
2022-10-17T01:07:20.757Z,96055.91
2022-10-17T01:09:48.702Z,96058.97
2022-10-17T01:12:34.071Z,96064.25
2022-10-17T01:15:18.750Z,96067.31
2022-10-17T01:18:21.801Z,96076.13
2022-10-17T01:21:09.935Z,96064.75
2022-10-17T01:23:54.421Z,96064.59
2022-10-17T01:26:39.068Z,96058.63
2022-10-17T01:29:11.442Z,96053.50
2022-10-17T01:32:16.365Z,96072.75
2022-10-17T01:35:10.565Z,96068.41
2022-10-17T01:38:01.542Z,96064.41
2022-10-17T01:40:35.962Z,96062.34
2022-10-17T01:43:21.307Z,96061.84
2022-10-17T01:45:58.727Z,96055.75
2022-10-17T01:48:32.940Z,96060.41
2022-10-17T01:51:22.136Z,96056.69
2022-10-17T01:54:00.929Z,96053.50
2022-10-17T01:56:32.069Z,96053.00
2022-10-17T01:59:04.716Z,96049.00
2022-10-17T02:01:32.283Z,96049.31
2022-10-17T02:04:02.714Z,96048.84
2022-10-17T02:06:29.279Z,96034.69
2022-10-17T02:08:56.530Z,96044.34
2022-10-17T02:11:25.026Z,96043.81
2022-10-17T02:14:19.035Z,96051.84
2022-10-17T02:16:57.509Z,96046.22
2022-10-17T02:19:46.299Z,96043.81
2022-10-17T02:22:41.330Z,96048.59
2022-10-17T02:25:14.645Z,96051.66
2022-10-17T02:27:48.730Z,96043.00
2022-10-17T02:30:28.258Z,96047.50
2022-10-17T02:33:13.158Z,96053.25
2022-10-17T02:35:46.481Z,96042.66
2022-10-17T02:38:14.636Z,96050.03
2022-10-17T02:40:45.438Z,96044.88
2022-10-17T02:43:12.963Z,96049.53
2022-10-17T02:45:40.547Z,96049.53
2022-10-17T02:48:14.423Z,96046.50
2022-10-17T02:50:53.814Z,96057.09
2022-10-17T02:53:32.603Z,96060.28
2022-10-17T02:56:06.125Z,96062.38
2022-10-17T02:58:36.168Z,96050.38
2022-10-17T03:01:05.057Z,96061.28
2022-10-17T03:03:32.840Z,96055.50
2022-10-17T03:06:01.491Z,96053.91
2022-10-17T03:08:28.045Z,96056.63
2022-10-17T03:10:55.794Z,96054.22
2022-10-17T03:13:22.841Z,96055.03
2022-10-17T03:15:49.827Z,96053.41
2022-10-17T03:18:16.595Z,96054.53
2022-10-17T03:20:44.080Z,96054.53
2022-10-17T03:23:10.629Z,96054.53
2022-10-17T03:25:37.180Z,96053.72
2022-10-17T03:28:04.196Z,96059.97
2022-10-17T03:30:31.355Z,96062.22
2022-10-17T03:32:59.241Z,96055.97
2022-10-17T03:35:27.420Z,96061.44
2022-10-17T03:37:55.671Z,96056.28
2022-10-17T03:40:23.517Z,96059.81
2022-10-17T03:42:50.031Z,96065.25
2022-10-17T03:45:16.556Z,96061.22
2022-10-17T03:47:44.258Z,96070.53
2022-10-17T03:50:11.036Z,96071.66
2022-10-17T03:52:38.676Z,96074.69
2022-10-17T03:55:05.703Z,96069.56
2022-10-17T03:57:34.905Z,96067.16
2022-10-17T04:00:04.207Z,96071.31
2022-10-17T04:02:40.969Z,96071.94
2022-10-17T04:05:10.339Z,96072.25
2022-10-17T04:07:36.883Z,96075.28
2022-10-17T04:10:05.245Z,96074.00
2022-10-17T04:12:32.543Z,96070.72
2022-10-17T04:14:59.291Z,96080.69
2022-10-17T04:17:26.133Z,96081.81
2022-10-17T04:19:52.777Z,96088.69
2022-10-17T04:22:19.489Z,96090.09
2022-10-17T04:24:46.675Z,96086.09
2022-10-17T04:27:24.124Z,96094.06
2022-10-17T04:29:50.650Z,96097.91
2022-10-17T04:32:22.084Z,96100.13
2022-10-17T04:34:54.395Z,96095.31
2022-10-17T04:37:22.513Z,96089.34
2022-10-17T04:39:50.972Z,96083.75
2022-10-17T04:42:17.467Z,96083.75
2022-10-17T04:44:44.031Z,96094.94
2022-10-17T04:47:10.615Z,96092.84
2022-10-17T04:49:38.746Z,96096.16
2022-10-17T04:52:10.183Z,96098.75
2022-10-17T04:54:44.586Z,96092.81
2022-10-17T04:57:13.441Z,96095.53
2022-10-17T04:59:41.719Z,96094.22
2022-10-17T05:02:17.020Z,96101.91
2022-10-17T05:04:44.883Z,96095.91
2022-10-17T05:07:12.420Z,96093.06
2022-10-17T05:09:45.124Z,96104.72
2022-10-17T05:12:12.129Z,96105.03
2022-10-17T05:14:42.253Z,96098.31
2022-10-17T05:17:08.863Z,96108.41
2022-10-17T05:19:35.596Z,96107.88
2022-10-17T05:22:02.128Z,96117.97
2022-10-17T05:24:29.079Z,96118.59
2022-10-17T05:26:55.609Z,96118.41
2022-10-17T05:29:22.514Z,96120.31
2022-10-17T05:31:54.563Z,96122.06
2022-10-17T05:34:21.124Z,96131.31
2022-10-17T05:36:47.688Z,96131.16
2022-10-17T05:39:17.912Z,96136.88
2022-10-17T05:41:44.488Z,96139.91
2022-10-17T05:44:11.074Z,96136.72
2022-10-17T05:46:41.143Z,96134.28
2022-10-17T05:49:19.680Z,96140.03
2022-10-17T05:51:57.478Z,96142.75
2022-10-17T05:54:26.183Z,96144.66
2022-10-17T05:56:54.331Z,96152.81
2022-10-17T05:59:26.914Z,96154.44
2022-10-17T06:01:57.947Z,96157.94
2022-10-17T06:04:24.648Z,96166.13
2022-10-17T06:06:51.286Z,96159.56
2022-10-17T06:09:17.931Z,96158.47
2022-10-17T06:11:47.355Z,96169.84
2022-10-17T06:14:14.654Z,96173.34
2022-10-17T06:16:42.216Z,96168.75
2022-10-17T06:19:09.282Z,96176.59
2022-10-17T06:21:35.776Z,96167.78
2022-10-17T06:24:08.202Z,96173.56
2022-10-17T06:26:36.848Z,96178.38
2022-10-17T06:29:06.229Z,96178.88
2022-10-17T06:31:36.619Z,96182.09
2022-10-17T06:34:03.081Z,96185.31
2022-10-17T06:36:29.942Z,96191.28
2022-10-17T06:38:56.547Z,96196.41
2022-10-17T06:41:31.308Z,96195.78
2022-10-17T06:44:03.961Z,96205.25
2022-10-17T06:46:44.967Z,96203.53
2022-10-17T06:49:15.119Z,96199.38
2022-10-17T06:51:50.594Z,96194.13
2022-10-17T06:54:20.483Z,96202.47
2022-10-17T06:56:49.987Z,96204.28
2022-10-17T06:59:37.105Z,96202.03
2022-10-17T07:02:10.937Z,96210.91
2022-10-17T07:04:38.272Z,96214.91
2022-10-17T07:07:05.001Z,96212.06
2022-10-17T07:09:34.095Z,96214.69
2022-10-17T07:12:00.622Z,96214.59
2022-10-17T07:14:27.228Z,96212.56
2022-10-17T07:16:53.903Z,96216.72
2022-10-17T07:19:23.758Z,96208.47
2022-10-17T07:21:50.804Z,96216.66
2022-10-17T07:24:17.500Z,96217.84
2022-10-17T07:26:55.918Z,96221.72
2022-10-17T07:29:22.641Z,96220.97
2022-10-17T07:31:56.464Z,96229.16
2022-10-17T07:34:23.218Z,96226.97
2022-10-17T07:36:49.843Z,96221.91
2022-10-17T07:39:16.491Z,96223.53
2022-10-17T07:41:43.089Z,96219.72
2022-10-17T07:44:10.341Z,96227.13
2022-10-17T07:46:42.687Z,96236.13
2022-10-17T07:49:09.266Z,96236.16
2022-10-17T07:51:35.943Z,96233.47
2022-10-17T07:54:02.737Z,96228.84
2022-10-17T07:56:29.537Z,96229.16
2022-10-17T08:01:43.832Z,96243.63
2022-10-17T08:04:10.401Z,96246.38
2022-10-17T08:06:37.004Z,96235.16
2022-10-17T08:09:03.778Z,96240.28
2022-10-17T08:11:30.339Z,96245.44
2022-10-17T08:13:56.814Z,96241.88
2022-10-17T08:16:23.426Z,96243.47
2022-10-17T08:18:49.923Z,96245.84
2022-10-17T08:21:16.385Z,96250.25
2022-10-17T08:23:42.885Z,96248.25
2022-10-17T08:26:11.078Z,96258.88
2022-10-17T08:28:39.217Z,96267.84
2022-10-17T08:31:13.404Z,96256.91
2022-10-17T08:33:41.342Z,96252.97
2022-10-17T08:36:08.998Z,96244.41
2022-10-17T08:38:37.583Z,96246.78
2022-10-17T08:41:41.904Z,96250.28
2022-10-17T08:44:22.062Z,96241.34
2022-10-17T08:46:52.049Z,96243.84
2022-10-17T08:49:45.468Z,96244.63
2022-10-17T08:52:22.552Z,96238.41
2022-10-17T08:54:50.723Z,96242.72
2022-10-17T08:57:17.498Z,96238.44
2022-10-17T08:59:45.433Z,96235.28
2022-10-17T09:02:23.844Z,96230.53
2022-10-17T09:04:53.069Z,96235.59
2022-10-17T09:07:30.646Z,96230.16
2022-10-17T09:10:14.985Z,96235.69
2022-10-17T09:12:48.421Z,96237.34
2022-10-17T09:15:41.540Z,96239.44
2022-10-17T09:18:24.145Z,96236.84
2022-10-17T09:20:57.420Z,96236.16
2022-10-17T09:23:33.538Z,96238.56
2022-10-17T09:26:01.341Z,96240.97
2022-10-17T09:28:33.897Z,96235.47
2022-10-17T09:31:11.839Z,96239.03
2022-10-17T09:33:55.646Z,96242.22
2022-10-17T09:36:22.132Z,96245.97
2022-10-17T09:38:55.278Z,96239.78
2022-10-17T09:41:56.169Z,96240.06
2022-10-17T09:44:24.861Z,96238.31
2022-10-17T09:47:06.123Z,96238.63
2022-10-17T09:49:38.361Z,96242.81
2022-10-17T09:52:11.942Z,96239.09
2022-10-17T09:54:45.245Z,96244.84
2022-10-17T09:57:13.201Z,96230.91
2022-10-17T09:59:41.332Z,96243.78
2022-10-17T10:02:16.677Z,96237.16
2022-10-17T10:05:04.686Z,96242.50
2022-10-17T10:07:37.453Z,96253.31
2022-10-17T10:10:07.619Z,96253.16
2022-10-17T10:12:37.814Z,96249.78
2022-10-17T10:15:31.086Z,96252.75
2022-10-17T10:17:57.699Z,96249.78
2022-10-17T10:20:34.288Z,96244.47
2022-10-17T10:23:14.696Z,96252.56
2022-10-17T10:25:59.273Z,96243.66
2022-10-17T10:28:33.240Z,96245.09
2022-10-17T10:31:07.677Z,96246.03
2022-10-17T10:33:41.671Z,96239.09
2022-10-17T10:36:08.901Z,96235.72
2022-10-17T10:38:39.643Z,96242.16
2022-10-17T10:41:09.293Z,96242.75
2022-10-17T10:43:48.787Z,96240.16
2022-10-17T10:46:22.943Z,96242.34
2022-10-17T10:49:01.433Z,96248.03
2022-10-17T10:51:41.205Z,96238.75
2022-10-17T10:54:17.948Z,96249.19
2022-10-17T10:56:53.384Z,96242.22
2022-10-17T10:59:29.879Z,96238.00
2022-10-17T11:02:04.142Z,96255.94
2022-10-17T11:04:44.826Z,96253.69
2022-10-17T11:07:23.422Z,96243.22
2022-10-17T11:10:17.148Z,96242.59
2022-10-17T11:12:50.564Z,96235.19
2022-10-17T11:15:29.431Z,96240.47
2022-10-17T11:18:08.473Z,96238.22
2022-10-17T11:20:50.052Z,96233.19
2022-10-17T11:23:18.987Z,96239.94
2022-10-17T11:25:46.073Z,96240.38
2022-10-17T11:28:19.412Z,96240.50
2022-10-17T11:30:56.339Z,96244.59
2022-10-17T11:33:54.414Z,96244.22
2022-10-17T11:36:25.851Z,96238.50
2022-10-17T11:38:58.511Z,96233.81
2022-10-17T11:41:35.040Z,96238.25
2022-10-17T11:44:15.228Z,96233.22
2022-10-17T11:46:46.108Z,96235.63
2022-10-17T11:49:40.243Z,96232.88
2022-10-17T11:52:55.509Z,96235.63
2022-10-17T11:55:27.342Z,96238.88
2022-10-17T11:58:21.727Z,96236.19
2022-10-17T12:01:16.157Z,96235.44
2022-10-17T12:04:00.989Z,96233.94
2022-10-17T12:07:09.895Z,96228.53
2022-10-17T12:09:49.888Z,96235.75
2022-10-17T12:12:28.814Z,96229.84
2022-10-17T12:15:21.316Z,96225.09
2022-10-17T12:17:56.295Z,96229.56
2022-10-17T12:20:22.819Z,96220.56
2022-10-17T12:22:56.712Z,96224.53
2022-10-17T12:25:23.272Z,96224.22
2022-10-17T12:27:51.085Z,96226.69
2022-10-17T12:30:26.407Z,96220.41
2022-10-17T12:33:06.242Z,96223.63
2022-10-17T12:35:35.471Z,96223.25
2022-10-17T12:38:23.909Z,96219.34
2022-10-17T12:40:55.846Z,96214.22
2022-10-17T12:43:28.136Z,96217.78
2022-10-17T12:45:56.936Z,96213.88
2022-10-17T12:48:38.740Z,96210.38
2022-10-17T12:51:34.346Z,96214.41
2022-10-17T12:54:15.374Z,96209.69
2022-10-17T12:56:46.792Z,96206.22
2022-10-17T12:59:19.794Z,96209.44
2022-10-17T13:01:49.960Z,96207.91
2022-10-17T13:04:17.731Z,96208.00
2022-10-17T13:06:47.365Z,96207.22
2022-10-17T13:09:32.519Z,96214.38
2022-10-17T13:12:06.359Z,96204.91
2022-10-17T13:14:34.075Z,96205.38
2022-10-17T13:17:06.375Z,96207.38
2022-10-17T13:19:44.546Z,96201.84
2022-10-17T13:22:18.736Z,96209.81
2022-10-17T13:24:46.279Z,96209.84
2022-10-17T13:27:25.134Z,96206.72
2022-10-17T13:29:51.768Z,96212.31
2022-10-17T13:32:18.649Z,96208.78
2022-10-17T13:34:45.250Z,96207.59
2022-10-17T13:37:15.533Z,96211.56
2022-10-17T13:39:54.771Z,96209.22
2022-10-17T13:42:35.878Z,96212.41
2022-10-17T13:45:03.620Z,96199.75
2022-10-17T13:47:36.449Z,96209.25
2022-10-17T13:50:12.708Z,96207.72
2022-10-17T13:52:47.820Z,96197.03
2022-10-17T13:55:17.877Z,96210.88
2022-10-17T13:57:44.549Z,96199.41
2022-10-17T14:00:20.441Z,96206.13
2022-10-17T14:02:47.347Z,96201.41
2022-10-17T14:05:18.541Z,96204.16
2022-10-17T14:08:15.283Z,96206.50
2022-10-17T14:10:44.533Z,96198.19
2022-10-17T14:13:29.189Z,96202.16
2022-10-17T14:15:59.236Z,96200.56
2022-10-17T14:18:36.201Z,96201.72
2022-10-17T14:21:37.244Z,96203.31
2022-10-17T14:23:53.300Z,96207.66
2022-10-17T14:26:23.272Z,96202.09
2022-10-17T14:29:02.902Z,96203.63
2022-10-17T14:31:34.948Z,96205.59
2022-10-17T14:34:04.374Z,96204.38
2022-10-17T14:36:38.611Z,96205.53
2022-10-17T14:39:13.289Z,96207.09
2022-10-17T14:41:44.492Z,96201.88
2022-10-17T14:44:25.027Z,96202.63
2022-10-17T14:46:55.953Z,96212.91
2022-10-17T14:49:42.682Z,96214.41
2022-10-17T14:52:30.786Z,96212.00
2022-10-17T14:55:00.002Z,96218.72
2022-10-17T14:57:39.857Z,96219.50
2022-10-17T15:00:07.232Z,96216.72
2022-10-17T15:02:33.948Z,96217.47
2022-10-17T15:05:00.673Z,96215.88
2022-10-17T15:07:27.185Z,96219.00
2022-10-17T15:09:53.700Z,96220.59
2022-10-17T15:12:23.072Z,96218.59
2022-10-17T15:14:49.824Z,96218.56
2022-10-17T15:17:19.231Z,96223.25
2022-10-17T15:19:45.946Z,96227.16
2022-10-17T15:22:13.237Z,96224.72
2022-10-17T15:24:39.785Z,96228.59
2022-10-17T15:27:17.936Z,96230.84
2022-10-17T15:29:45.142Z,96228.78
2022-10-17T15:32:11.829Z,96233.81
2022-10-17T15:34:38.765Z,96232.94
2022-10-17T15:37:06.924Z,96239.13
2022-10-17T15:39:33.331Z,96235.34
2022-10-17T15:41:59.871Z,96241.22
2022-10-17T15:44:26.445Z,96236.78
2022-10-17T15:46:55.557Z,96246.03
2022-10-17T15:49:22.010Z,96245.91
2022-10-17T15:51:51.723Z,96249.66
2022-10-17T15:54:21.940Z,96256.22
2022-10-17T15:56:53.971Z,96260.31
2022-10-17T15:59:24.248Z,96260.88
2022-10-17T16:01:50.720Z,96259.09
2022-10-17T16:04:17.233Z,96265.56
2022-10-17T16:06:43.700Z,96268.06
2022-10-17T16:09:10.464Z,96271.41
2022-10-17T16:11:42.499Z,96270.75
2022-10-17T16:14:14.870Z,96285.53
2022-10-17T16:16:41.714Z,96287.25
2022-10-17T16:19:08.865Z,96287.34
2022-10-17T16:21:37.967Z,96291.84
2022-10-17T16:24:05.493Z,96295.94
2022-10-17T16:26:32.341Z,96292.97
2022-10-17T16:28:58.965Z,96298.22
2022-10-17T16:31:28.669Z,96299.56
2022-10-17T16:33:56.737Z,96304.81
2022-10-17T16:36:23.646Z,96305.06
2022-10-17T16:38:50.627Z,96311.72
2022-10-17T16:41:30.579Z,96313.50
2022-10-17T16:43:59.778Z,96305.78
2022-10-17T16:46:28.127Z,96308.66
2022-10-17T16:48:55.178Z,96313.53
2022-10-17T16:51:22.222Z,96313.28
2022-10-17T16:53:50.762Z,96317.78
2022-10-17T16:56:19.887Z,96324.59
2022-10-17T16:58:46.573Z,96326.34
2022-10-17T17:01:16.217Z,96338.28
2022-10-17T17:03:44.192Z,96327.03
2022-10-17T17:06:19.802Z,96329.13
2022-10-17T17:08:47.231Z,96323.44
2022-10-17T17:11:15.682Z,96328.69
2022-10-17T17:13:42.314Z,96322.19
2022-10-17T17:16:12.962Z,96328.28
2022-10-17T17:18:40.990Z,96333.22
2022-10-17T17:21:08.611Z,96334.25
2022-10-17T17:23:38.087Z,96333.13
2022-10-17T17:26:10.711Z,96334.50
2022-10-17T17:28:37.775Z,96340.22
2022-10-17T17:31:08.199Z,96334.16
2022-10-17T17:33:35.118Z,96332.78
2022-10-17T17:36:02.202Z,96334.47
2022-10-17T17:38:30.120Z,96341.31
2022-10-17T17:40:56.834Z,96335.59
2022-10-17T17:43:23.713Z,96339.38
2022-10-17T17:45:50.312Z,96346.56
2022-10-17T17:48:16.913Z,96344.38
2022-10-17T17:50:44.440Z,96354.78
2022-10-17T17:53:13.025Z,96359.19
2022-10-17T17:55:39.959Z,96355.44
2022-10-17T17:58:06.647Z,96355.97
2022-10-17T18:00:33.259Z,96359.75
2022-10-17T18:02:59.780Z,96363.50
2022-10-17T18:05:26.480Z,96371.13
2022-10-17T18:07:53.040Z,96369.72
2022-10-17T18:10:19.631Z,96370.72
2022-10-17T18:12:46.341Z,96370.94
2022-10-17T18:15:13.156Z,96377.06
2022-10-17T18:17:39.781Z,96372.13
2022-10-17T18:20:07.360Z,96375.53
2022-10-17T18:22:34.317Z,96377.66
2022-10-17T18:25:00.839Z,96377.53
2022-10-17T18:27:27.375Z,96377.41
2022-10-17T18:29:53.912Z,96372.13
2022-10-17T18:32:20.660Z,96376.34
2022-10-17T18:34:47.130Z,96377.00
2022-10-17T18:37:13.641Z,96388.16
2022-10-17T18:39:40.116Z,96380.94
2022-10-17T18:42:06.576Z,96382.72
2022-10-17T18:44:33.051Z,96380.97
2022-10-17T18:47:03.041Z,96387.16
2022-10-17T18:49:31.093Z,96393.94
2022-10-17T18:51:57.632Z,96387.06
2022-10-17T18:54:24.093Z,96388.03
2022-10-17T18:56:53.092Z,96398.03
2022-10-17T18:59:20.954Z,96396.28
2022-10-17T19:01:47.941Z,96389.38
2022-10-17T19:04:15.053Z,96399.09
2022-10-17T19:06:42.365Z,96389.13
2022-10-17T19:09:10.708Z,96396.38
2022-10-17T19:11:38.359Z,96390.75
2022-10-17T19:14:07.313Z,96403.13
2022-10-17T19:16:36.283Z,96396.72
2022-10-17T19:19:10.875Z,96394.94
2022-10-17T19:21:37.864Z,96393.66
2022-10-17T19:24:07.333Z,96393.84
2022-10-17T19:26:35.770Z,96399.19
2022-10-17T19:29:02.751Z,96402.09
2022-10-17T19:31:30.758Z,96406.59
2022-10-17T19:33:57.734Z,96393.91
2022-10-17T19:36:30.498Z,96394.53
2022-10-17T19:39:05.214Z,96395.19
2022-10-17T19:41:32.831Z,96397.00
2022-10-17T19:44:00.387Z,96403.13
2022-10-17T19:46:28.712Z,96398.63
2022-10-17T19:48:55.607Z,96400.06
2022-10-17T19:51:23.432Z,96402.31
2022-10-17T19:53:51.324Z,96392.34
2022-10-17T19:56:19.573Z,96398.13
2022-10-17T19:58:47.264Z,96401.19
2022-10-17T20:01:16.949Z,96400.59
2022-10-17T20:03:43.724Z,96406.38
2022-10-17T20:06:10.714Z,96399.59
2022-10-17T20:08:38.872Z,96395.56
2022-10-17T20:11:06.633Z,96399.28
2022-10-17T20:13:35.956Z,96401.06
2022-10-17T20:16:03.418Z,96413.13
2022-10-17T20:18:29.948Z,96403.16
2022-10-17T20:20:56.563Z,96398.31
2022-10-17T20:23:23.126Z,96399.78
2022-10-17T20:26:06.757Z,96407.00
2022-10-17T20:28:45.693Z,96408.47
2022-10-17T20:31:12.334Z,96411.84
2022-10-17T20:33:38.943Z,96406.66
2022-10-17T20:36:08.972Z,96416.31
2022-10-17T20:38:35.856Z,96411.47
2022-10-17T20:41:07.520Z,96414.53
2022-10-17T20:43:34.964Z,96414.84
2022-10-17T20:46:09.806Z,96412.75
2022-10-17T20:48:42.455Z,96418.84
2022-10-17T20:51:10.448Z,96418.38
2022-10-17T20:53:37.967Z,96417.06
2022-10-17T20:56:08.490Z,96424.81
2022-10-17T20:58:35.662Z,96422.69
2022-10-17T21:01:09.719Z,96426.88
2022-10-17T21:03:39.818Z,96436.53
2022-10-17T21:06:11.193Z,96429.75
2022-10-17T21:08:38.107Z,96426.84
2022-10-17T21:11:16.146Z,96423.16
2022-10-17T21:13:43.078Z,96421.84
2022-10-17T21:16:20.076Z,96420.88
2022-10-17T21:18:46.636Z,96421.19
2022-10-17T21:21:14.371Z,96413.31
2022-10-17T21:23:43.362Z,96416.38
2022-10-17T21:26:11.001Z,96408.81
2022-10-17T21:28:37.662Z,96409.44
2022-10-17T21:31:25.117Z,96408.47
2022-10-17T21:33:57.945Z,96404.13
2022-10-17T21:36:25.751Z,96415.38
2022-10-17T21:38:54.515Z,96414.09
2022-10-17T21:41:23.381Z,96416.31
2022-10-17T21:43:59.443Z,96414.22
2022-10-17T21:46:26.399Z,96408.28
2022-10-17T21:48:53.090Z,96412.94
2022-10-17T21:51:22.361Z,96408.91
2022-10-17T21:53:49.960Z,96408.09
2022-10-17T21:56:18.991Z,96406.81
2022-10-17T21:58:45.888Z,96407.94
2022-10-17T22:01:18.790Z,96404.22
2022-10-17T22:03:47.818Z,96408.88
2022-10-17T22:09:04.875Z,96398.09
2022-10-17T22:11:33.718Z,96400.34
2022-10-17T22:14:06.435Z,96399.03
2022-10-17T22:16:33.625Z,96404.00
2022-10-17T22:19:05.874Z,96396.94
2022-10-17T22:21:34.661Z,96403.84
2022-10-17T22:24:04.361Z,96398.69
2022-10-17T22:26:32.707Z,96406.38
2022-10-17T22:28:59.451Z,96410.22
2022-10-17T22:31:26.486Z,96406.72
2022-10-17T22:33:53.333Z,96404.59
2022-10-17T22:36:20.218Z,96404.09
2022-10-17T22:38:46.856Z,96410.69
2022-10-17T22:41:13.364Z,96400.88
2022-10-17T22:43:40.007Z,96402.81
2022-10-17T22:46:07.405Z,96400.38
2022-10-17T22:48:34.395Z,96402.31
2022-10-17T22:51:01.717Z,96396.84
2022-10-17T22:53:28.811Z,96396.31
2022-10-17T22:56:04.052Z,96396.31
2022-10-17T22:58:31.948Z,96391.19
2022-10-17T23:00:58.712Z,96396.63
2022-10-17T23:03:27.908Z,96401.31
2022-10-17T23:05:54.471Z,96388.75
2022-10-17T23:08:21.326Z,96390.69
2022-10-17T23:10:48.376Z,96394.22
2022-10-17T23:13:15.614Z,96388.28
2022-10-17T23:15:42.838Z,96392.13
2022-10-17T23:18:09.576Z,96391.63
2022-10-17T23:20:37.764Z,96388.91
2022-10-17T23:23:04.636Z,96394.66
2022-10-17T23:25:33.682Z,96401.56
2022-10-17T23:28:00.791Z,96393.38
2022-10-17T23:30:27.610Z,96386.31
2022-10-17T23:32:54.070Z,96389.03
2022-10-17T23:35:20.547Z,96387.44
2022-10-17T23:37:47.091Z,96388.56
2022-10-17T23:40:13.782Z,96386.16
2022-10-17T23:42:40.346Z,96387.25
2022-10-17T23:45:07.590Z,96382.09
2022-10-17T23:47:34.349Z,96383.22
2022-10-17T23:50:01.142Z,96382.72
2022-10-17T23:52:27.737Z,96382.25
2022-10-17T23:54:54.229Z,96383.34
2022-10-17T23:57:20.689Z,96383.66
2022-10-17T23:59:47.312Z,96378.22
